sensor_id;sensor_type;location;lat;lon;timestamp;P1;durP1;ratioP1;P2;durP2;ratioP2
32864;SDS011;19219;44.500;11.188;2023-09-30T00:01:25;13.77;;;9.43;;
32864;SDS011;19219;44.500;11.188;2023-09-30T00:03:52;12.00;;;8.68;;
32864;SDS011;19219;44.500;11.188;2023-09-30T00:06:18;11.10;;;9.23;;
32864;SDS011;19219;44.500;11.188;2023-09-30T00:08:44;19.02;;;10.45;;
32864;SDS011;19219;44.500;11.188;2023-09-30T00:11:10;15.15;;;10.18;;
32864;SDS011;19219;44.500;11.188;2023-09-30T00:13:36;17.88;;;9.85;;
32864;SDS011;19219;44.500;11.188;2023-09-30T00:16:02;13.07;;;8.70;;
32864;SDS011;19219;44.500;11.188;2023-09-30T00:18:27;15.75;;;10.75;;
32864;SDS011;19219;44.500;11.188;2023-09-30T00:20:53;20.23;;;11.77;;
32864;SDS011;19219;44.500;11.188;2023-09-30T00:23:19;13.07;;;9.82;;
32864;SDS011;19219;44.500;11.188;2023-09-30T00:25:46;15.45;;;10.27;;
32864;SDS011;19219;44.500;11.188;2023-09-30T00:28:15;13.88;;;9.57;;
32864;SDS011;19219;44.500;11.188;2023-09-30T00:30:40;14.07;;;10.45;;
32864;SDS011;19219;44.500;11.188;2023-09-30T00:33:06;21.05;;;10.25;;
32864;SDS011;19219;44.500;11.188;2023-09-30T00:35:33;12.18;;;9.40;;
32864;SDS011;19219;44.500;11.188;2023-09-30T00:37:58;12.52;;;9.98;;
32864;SDS011;19219;44.500;11.188;2023-09-30T00:40:24;13.52;;;10.35;;
32864;SDS011;19219;44.500;11.188;2023-09-30T00:42:50;13.00;;;9.80;;
32864;SDS011;19219;44.500;11.188;2023-09-30T00:45:15;16.55;;;9.95;;
32864;SDS011;19219;44.500;11.188;2023-09-30T00:47:41;14.75;;;9.15;;
32864;SDS011;19219;44.500;11.188;2023-09-30T00:50:07;13.90;;;9.75;;
32864;SDS011;19219;44.500;11.188;2023-09-30T00:52:35;14.73;;;10.15;;
32864;SDS011;19219;44.500;11.188;2023-09-30T00:55:03;17.42;;;10.40;;
32864;SDS011;19219;44.500;11.188;2023-09-30T00:57:30;16.13;;;9.80;;
32864;SDS011;19219;44.500;11.188;2023-09-30T00:59:57;14.30;;;10.13;;
32864;SDS011;19219;44.500;11.188;2023-09-30T01:02:23;14.35;;;9.05;;
32864;SDS011;19219;44.500;11.188;2023-09-30T01:04:49;13.18;;;9.05;;
32864;SDS011;19219;44.500;11.188;2023-09-30T01:07:15;12.20;;;9.15;;
32864;SDS011;19219;44.500;11.188;2023-09-30T01:09:41;12.73;;;9.15;;
32864;SDS011;19219;44.500;11.188;2023-09-30T01:12:07;15.93;;;9.73;;
32864;SDS011;19219;44.500;11.188;2023-09-30T01:14:34;13.35;;;10.52;;
32864;SDS011;19219;44.500;11.188;2023-09-30T01:17:00;16.75;;;9.88;;
32864;SDS011;19219;44.500;11.188;2023-09-30T01:19:27;16.30;;;9.57;;
32864;SDS011;19219;44.500;11.188;2023-09-30T01:21:54;14.93;;;10.10;;
32864;SDS011;19219;44.500;11.188;2023-09-30T01:24:28;13.75;;;9.35;;
32864;SDS011;19219;44.500;11.188;2023-09-30T01:26:57;12.05;;;9.70;;
32864;SDS011;19219;44.500;11.188;2023-09-30T01:29:22;15.45;;;9.05;;
32864;SDS011;19219;44.500;11.188;2023-09-30T01:31:50;12.75;;;10.00;;
32864;SDS011;19219;44.500;11.188;2023-09-30T01:34:16;14.00;;;11.02;;
32864;SDS011;19219;44.500;11.188;2023-09-30T01:36:43;18.60;;;11.40;;
32864;SDS011;19219;44.500;11.188;2023-09-30T01:39:12;13.65;;;9.98;;
32864;SDS011;19219;44.500;11.188;2023-09-30T01:41:38;13.13;;;10.17;;
32864;SDS011;19219;44.500;11.188;2023-09-30T01:44:05;14.15;;;10.68;;
32864;SDS011;19219;44.500;11.188;2023-09-30T01:46:31;14.63;;;10.82;;
32864;SDS011;19219;44.500;11.188;2023-09-30T01:48:57;13.40;;;9.82;;
32864;SDS011;19219;44.500;11.188;2023-09-30T01:51:22;13.90;;;9.80;;
32864;SDS011;19219;44.500;11.188;2023-09-30T01:53:49;17.02;;;11.00;;
32864;SDS011;19219;44.500;11.188;2023-09-30T01:56:15;19.17;;;10.85;;
32864;SDS011;19219;44.500;11.188;2023-09-30T01:58:41;13.55;;;10.88;;
32864;SDS011;19219;44.500;11.188;2023-09-30T02:01:07;15.20;;;10.85;;
32864;SDS011;19219;44.500;11.188;2023-09-30T02:03:33;14.40;;;10.45;;
32864;SDS011;19219;44.500;11.188;2023-09-30T02:05:59;16.30;;;10.93;;
32864;SDS011;19219;44.500;11.188;2023-09-30T02:08:25;12.10;;;10.50;;
32864;SDS011;19219;44.500;11.188;2023-09-30T02:10:50;13.45;;;10.55;;
32864;SDS011;19219;44.500;11.188;2023-09-30T02:13:17;12.40;;;9.32;;
32864;SDS011;19219;44.500;11.188;2023-09-30T02:15:43;13.90;;;10.45;;
32864;SDS011;19219;44.500;11.188;2023-09-30T02:18:09;14.20;;;9.73;;
32864;SDS011;19219;44.500;11.188;2023-09-30T02:20:35;11.57;;;9.00;;
32864;SDS011;19219;44.500;11.188;2023-09-30T02:23:08;12.15;;;9.60;;
32864;SDS011;19219;44.500;11.188;2023-09-30T02:25:38;13.07;;;9.77;;
32864;SDS011;19219;44.500;11.188;2023-09-30T02:28:04;13.00;;;9.20;;
32864;SDS011;19219;44.500;11.188;2023-09-30T02:30:34;13.57;;;9.55;;
32864;SDS011;19219;44.500;11.188;2023-09-30T02:33:00;18.10;;;9.90;;
32864;SDS011;19219;44.500;11.188;2023-09-30T02:35:26;14.50;;;9.63;;
32864;SDS011;19219;44.500;11.188;2023-09-30T02:37:52;12.00;;;9.38;;
32864;SDS011;19219;44.500;11.188;2023-09-30T02:40:19;13.98;;;9.82;;
32864;SDS011;19219;44.500;11.188;2023-09-30T02:42:45;16.30;;;9.93;;
32864;SDS011;19219;44.500;11.188;2023-09-30T02:45:12;13.18;;;11.20;;
32864;SDS011;19219;44.500;11.188;2023-09-30T02:47:39;13.80;;;10.95;;
32864;SDS011;19219;44.500;11.188;2023-09-30T02:50:05;14.55;;;10.20;;
32864;SDS011;19219;44.500;11.188;2023-09-30T02:52:41;17.83;;;10.57;;
32864;SDS011;19219;44.500;11.188;2023-09-30T02:55:10;15.57;;;9.75;;
32864;SDS011;19219;44.500;11.188;2023-09-30T02:57:36;11.65;;;9.88;;
32864;SDS011;19219;44.500;11.188;2023-09-30T03:00:06;14.50;;;10.65;;
32864;SDS011;19219;44.500;11.188;2023-09-30T03:02:54;13.07;;;9.85;;
32864;SDS011;19219;44.500;11.188;2023-09-30T03:05:21;18.98;;;11.23;;
32864;SDS011;19219;44.500;11.188;2023-09-30T03:07:47;15.45;;;11.18;;
32864;SDS011;19219;44.500;11.188;2023-09-30T03:10:15;15.13;;;10.23;;
32864;SDS011;19219;44.500;11.188;2023-09-30T03:12:55;13.48;;;10.07;;
32864;SDS011;19219;44.500;11.188;2023-09-30T03:15:27;17.00;;;10.90;;
32864;SDS011;19219;44.500;11.188;2023-09-30T03:17:53;17.00;;;10.80;;
32864;SDS011;19219;44.500;11.188;2023-09-30T03:20:20;13.35;;;10.38;;
32864;SDS011;19219;44.500;11.188;2023-09-30T03:22:46;14.35;;;10.82;;
32864;SDS011;19219;44.500;11.188;2023-09-30T03:25:14;15.50;;;11.85;;
32864;SDS011;19219;44.500;11.188;2023-09-30T03:27:42;16.98;;;10.70;;
32864;SDS011;19219;44.500;11.188;2023-09-30T03:30:09;15.10;;;10.43;;
32864;SDS011;19219;44.500;11.188;2023-09-30T03:32:37;17.15;;;10.95;;
32864;SDS011;19219;44.500;11.188;2023-09-30T03:35:04;15.48;;;10.05;;
32864;SDS011;19219;44.500;11.188;2023-09-30T03:37:33;16.05;;;11.50;;
32864;SDS011;19219;44.500;11.188;2023-09-30T03:39:59;14.90;;;11.15;;
32864;SDS011;19219;44.500;11.188;2023-09-30T03:42:32;15.95;;;11.10;;
32864;SDS011;19219;44.500;11.188;2023-09-30T03:44:57;14.93;;;11.13;;
32864;SDS011;19219;44.500;11.188;2023-09-30T03:47:23;14.93;;;11.68;;
32864;SDS011;19219;44.500;11.188;2023-09-30T03:49:49;17.55;;;11.93;;
32864;SDS011;19219;44.500;11.188;2023-09-30T03:52:15;18.75;;;11.13;;
32864;SDS011;19219;44.500;11.188;2023-09-30T03:54:41;17.90;;;11.73;;
32864;SDS011;19219;44.500;11.188;2023-09-30T03:57:06;19.73;;;12.05;;
32864;SDS011;19219;44.500;11.188;2023-09-30T03:59:32;21.63;;;13.30;;
32864;SDS011;19219;44.500;11.188;2023-09-30T04:01:58;24.02;;;15.05;;
32864;SDS011;19219;44.500;11.188;2023-09-30T04:04:24;36.63;;;21.48;;
32864;SDS011;19219;44.500;11.188;2023-09-30T04:06:51;16.88;;;12.90;;
32864;SDS011;19219;44.500;11.188;2023-09-30T04:09:17;21.67;;;12.57;;
32864;SDS011;19219;44.500;11.188;2023-09-30T04:11:43;20.05;;;12.38;;
32864;SDS011;19219;44.500;11.188;2023-09-30T04:14:09;18.50;;;12.63;;
32864;SDS011;19219;44.500;11.188;2023-09-30T04:16:35;16.95;;;11.68;;
32864;SDS011;19219;44.500;11.188;2023-09-30T04:19:02;17.02;;;11.15;;
32864;SDS011;19219;44.500;11.188;2023-09-30T04:21:29;21.85;;;11.88;;
32864;SDS011;19219;44.500;11.188;2023-09-30T04:23:55;14.88;;;12.18;;
32864;SDS011;19219;44.500;11.188;2023-09-30T04:26:22;19.17;;;13.48;;
32864;SDS011;19219;44.500;11.188;2023-09-30T04:28:47;15.00;;;12.38;;
32864;SDS011;19219;44.500;11.188;2023-09-30T04:31:14;18.10;;;13.13;;
32864;SDS011;19219;44.500;11.188;2023-09-30T04:33:40;17.08;;;12.48;;
32864;SDS011;19219;44.500;11.188;2023-09-30T04:36:06;19.95;;;13.10;;
32864;SDS011;19219;44.500;11.188;2023-09-30T04:38:35;18.33;;;13.05;;
32864;SDS011;19219;44.500;11.188;2023-09-30T04:41:04;17.08;;;12.60;;
32864;SDS011;19219;44.500;11.188;2023-09-30T04:43:33;21.25;;;13.52;;
32864;SDS011;19219;44.500;11.188;2023-09-30T04:45:59;16.15;;;12.20;;
32864;SDS011;19219;44.500;11.188;2023-09-30T04:48:25;16.98;;;12.63;;
32864;SDS011;19219;44.500;11.188;2023-09-30T04:50:51;17.40;;;11.93;;
32864;SDS011;19219;44.500;11.188;2023-09-30T04:53:17;19.50;;;12.32;;
32864;SDS011;19219;44.500;11.188;2023-09-30T04:55:44;20.58;;;12.65;;
32864;SDS011;19219;44.500;11.188;2023-09-30T04:58:10;18.83;;;12.63;;
32864;SDS011;19219;44.500;11.188;2023-09-30T05:00:36;19.88;;;13.13;;
32864;SDS011;19219;44.500;11.188;2023-09-30T05:03:02;17.55;;;12.02;;
32864;SDS011;19219;44.500;11.188;2023-09-30T05:05:30;19.05;;;12.77;;
32864;SDS011;19219;44.500;11.188;2023-09-30T05:07:56;17.60;;;12.50;;
32864;SDS011;19219;44.500;11.188;2023-09-30T05:10:23;16.50;;;12.85;;
32864;SDS011;19219;44.500;11.188;2023-09-30T05:12:49;22.55;;;14.30;;
32864;SDS011;19219;44.500;11.188;2023-09-30T05:15:19;19.90;;;12.40;;
32864;SDS011;19219;44.500;11.188;2023-09-30T05:17:45;16.63;;;11.90;;
32864;SDS011;19219;44.500;11.188;2023-09-30T05:20:12;21.45;;;12.63;;
32864;SDS011;19219;44.500;11.188;2023-09-30T05:22:42;21.13;;;13.10;;
32864;SDS011;19219;44.500;11.188;2023-09-30T05:25:10;20.98;;;13.18;;
32864;SDS011;19219;44.500;11.188;2023-09-30T05:27:43;21.10;;;12.77;;
32864;SDS011;19219;44.500;11.188;2023-09-30T05:30:09;16.40;;;12.40;;
32864;SDS011;19219;44.500;11.188;2023-09-30T05:35:06;29.83;;;19.95;;
32864;SDS011;19219;44.500;11.188;2023-09-30T05:37:41;31.55;;;21.25;;
32864;SDS011;19219;44.500;11.188;2023-09-30T05:40:07;18.77;;;12.70;;
32864;SDS011;19219;44.500;11.188;2023-09-30T05:42:47;18.65;;;12.73;;
32864;SDS011;19219;44.500;11.188;2023-09-30T05:45:16;25.70;;;13.05;;
32864;SDS011;19219;44.500;11.188;2023-09-30T05:47:42;19.45;;;12.98;;
32864;SDS011;19219;44.500;11.188;2023-09-30T05:50:09;52.92;;;30.58;;
32864;SDS011;19219;44.500;11.188;2023-09-30T05:52:39;19.58;;;14.60;;
32864;SDS011;19219;44.500;11.188;2023-09-30T05:55:05;21.45;;;12.73;;
32864;SDS011;19219;44.500;11.188;2023-09-30T05:57:32;18.90;;;12.77;;
32864;SDS011;19219;44.500;11.188;2023-09-30T05:59:58;17.63;;;13.23;;
32864;SDS011;19219;44.500;11.188;2023-09-30T06:02:24;17.20;;;12.60;;
32864;SDS011;19219;44.500;11.188;2023-09-30T06:04:50;19.20;;;12.57;;
32864;SDS011;19219;44.500;11.188;2023-09-30T06:07:18;17.90;;;13.23;;
32864;SDS011;19219;44.500;11.188;2023-09-30T06:09:45;18.92;;;12.77;;
32864;SDS011;19219;44.500;11.188;2023-09-30T06:12:13;20.08;;;13.60;;
32864;SDS011;19219;44.500;11.188;2023-09-30T06:14:39;16.05;;;11.30;;
32864;SDS011;19219;44.500;11.188;2023-09-30T06:17:05;19.20;;;13.95;;
32864;SDS011;19219;44.500;11.188;2023-09-30T06:19:32;34.13;;;20.15;;
32864;SDS011;19219;44.500;11.188;2023-09-30T06:21:58;20.30;;;14.88;;
32864;SDS011;19219;44.500;11.188;2023-09-30T06:24:24;20.70;;;12.93;;
32864;SDS011;19219;44.500;11.188;2023-09-30T06:26:49;18.98;;;12.63;;
32864;SDS011;19219;44.500;11.188;2023-09-30T06:29:16;16.77;;;12.18;;
32864;SDS011;19219;44.500;11.188;2023-09-30T06:31:42;18.02;;;12.43;;
32864;SDS011;19219;44.500;11.188;2023-09-30T06:34:08;25.15;;;13.20;;
32864;SDS011;19219;44.500;11.188;2023-09-30T06:36:36;19.60;;;11.93;;
32864;SDS011;19219;44.500;11.188;2023-09-30T06:39:02;18.35;;;12.07;;
32864;SDS011;19219;44.500;11.188;2023-09-30T06:41:30;23.33;;;13.93;;
32864;SDS011;19219;44.500;11.188;2023-09-30T06:43:56;18.08;;;12.88;;
32864;SDS011;19219;44.500;11.188;2023-09-30T06:46:22;17.90;;;12.27;;
32864;SDS011;19219;44.500;11.188;2023-09-30T06:48:49;16.85;;;11.90;;
32864;SDS011;19219;44.500;11.188;2023-09-30T06:51:17;20.52;;;13.05;;
32864;SDS011;19219;44.500;11.188;2023-09-30T06:53:43;17.98;;;11.27;;
32864;SDS011;19219;44.500;11.188;2023-09-30T06:56:09;19.77;;;11.35;;
32864;SDS011;19219;44.500;11.188;2023-09-30T06:58:35;18.38;;;11.18;;
32864;SDS011;19219;44.500;11.188;2023-09-30T07:01:00;16.08;;;10.60;;
32864;SDS011;19219;44.500;11.188;2023-09-30T07:03:26;15.07;;;10.05;;
32864;SDS011;19219;44.500;11.188;2023-09-30T07:05:52;14.57;;;10.25;;
32864;SDS011;19219;44.500;11.188;2023-09-30T07:08:19;11.93;;;9.05;;
32864;SDS011;19219;44.500;11.188;2023-09-30T07:10:46;19.40;;;9.15;;
32864;SDS011;19219;44.500;11.188;2023-09-30T07:13:14;11.40;;;9.02;;
32864;SDS011;19219;44.500;11.188;2023-09-30T07:15:41;9.75;;;8.75;;
32864;SDS011;19219;44.500;11.188;2023-09-30T07:18:08;12.27;;;7.78;;
32864;SDS011;19219;44.500;11.188;2023-09-30T07:20:33;10.80;;;7.88;;
32864;SDS011;19219;44.500;11.188;2023-09-30T07:22:59;15.65;;;9.40;;
32864;SDS011;19219;44.500;11.188;2023-09-30T07:25:26;12.27;;;8.35;;
32864;SDS011;19219;44.500;11.188;2023-09-30T07:27:52;12.45;;;9.07;;
32864;SDS011;19219;44.500;11.188;2023-09-30T07:30:18;12.05;;;8.60;;
32864;SDS011;19219;44.500;11.188;2023-09-30T07:32:44;15.68;;;9.43;;
32864;SDS011;19219;44.500;11.188;2023-09-30T07:35:11;12.80;;;7.57;;
32864;SDS011;19219;44.500;11.188;2023-09-30T07:37:39;19.70;;;8.67;;
32864;SDS011;19219;44.500;11.188;2023-09-30T07:40:05;12.35;;;9.18;;
32864;SDS011;19219;44.500;11.188;2023-09-30T07:42:31;15.68;;;8.95;;
32864;SDS011;19219;44.500;11.188;2023-09-30T07:44:58;12.38;;;8.43;;
32864;SDS011;19219;44.500;11.188;2023-09-30T07:47:24;11.65;;;8.55;;
32864;SDS011;19219;44.500;11.188;2023-09-30T07:49:49;13.10;;;8.93;;
32864;SDS011;19219;44.500;11.188;2023-09-30T07:52:15;11.55;;;9.13;;
32864;SDS011;19219;44.500;11.188;2023-09-30T07:54:41;12.23;;;9.32;;
32864;SDS011;19219;44.500;11.188;2023-09-30T07:57:07;12.73;;;8.48;;
32864;SDS011;19219;44.500;11.188;2023-09-30T07:59:32;10.75;;;8.60;;
32864;SDS011;19219;44.500;11.188;2023-09-30T08:01:58;12.60;;;8.93;;
32864;SDS011;19219;44.500;11.188;2023-09-30T08:04:24;18.40;;;13.52;;
32864;SDS011;19219;44.500;11.188;2023-09-30T08:06:50;12.95;;;10.05;;
32864;SDS011;19219;44.500;11.188;2023-09-30T08:09:16;18.63;;;14.60;;
32864;SDS011;19219;44.500;11.188;2023-09-30T08:11:43;26.45;;;18.30;;
32864;SDS011;19219;44.500;11.188;2023-09-30T08:14:09;21.40;;;15.57;;
32864;SDS011;19219;44.500;11.188;2023-09-30T08:16:35;16.27;;;11.23;;
32864;SDS011;19219;44.500;11.188;2023-09-30T08:19:02;10.00;;;9.00;;
32864;SDS011;19219;44.500;11.188;2023-09-30T08:21:28;9.45;;;8.02;;
32864;SDS011;19219;44.500;11.188;2023-09-30T08:23:55;10.68;;;8.35;;
32864;SDS011;19219;44.500;11.188;2023-09-30T08:26:21;10.93;;;8.00;;
32864;SDS011;19219;44.500;11.188;2023-09-30T08:28:47;12.23;;;8.35;;
32864;SDS011;19219;44.500;11.188;2023-09-30T08:31:13;11.38;;;8.02;;
32864;SDS011;19219;44.500;11.188;2023-09-30T08:33:39;13.10;;;7.25;;
32864;SDS011;19219;44.500;11.188;2023-09-30T08:36:06;15.48;;;9.07;;
32864;SDS011;19219;44.500;11.188;2023-09-30T08:38:42;20.48;;;13.27;;
32864;SDS011;19219;44.500;11.188;2023-09-30T08:41:09;23.08;;;15.00;;
32864;SDS011;19219;44.500;11.188;2023-09-30T08:43:39;29.15;;;17.55;;
32864;SDS011;19219;44.500;11.188;2023-09-30T08:46:06;26.15;;;15.02;;
32864;SDS011;19219;44.500;11.188;2023-09-30T08:48:33;18.15;;;12.70;;
32864;SDS011;19219;44.500;11.188;2023-09-30T08:50:59;21.33;;;11.20;;
32864;SDS011;19219;44.500;11.188;2023-09-30T08:53:26;12.27;;;9.35;;
32864;SDS011;19219;44.500;11.188;2023-09-30T08:55:57;9.18;;;8.23;;
32864;SDS011;19219;44.500;11.188;2023-09-30T08:58:28;15.00;;;7.10;;
32864;SDS011;19219;44.500;11.188;2023-09-30T09:03:21;12.45;;;8.00;;
32864;SDS011;19219;44.500;11.188;2023-09-30T09:05:53;11.55;;;7.38;;
32864;SDS011;19219;44.500;11.188;2023-09-30T09:08:22;12.63;;;7.18;;
32864;SDS011;19219;44.500;11.188;2023-09-30T09:10:55;15.57;;;10.05;;
32864;SDS011;19219;44.500;11.188;2023-09-30T09:13:23;10.10;;;7.75;;
32864;SDS011;19219;44.500;11.188;2023-09-30T09:16:08;11.57;;;9.57;;
32864;SDS011;19219;44.500;11.188;2023-09-30T09:18:34;11.20;;;8.15;;
32864;SDS011;19219;44.500;11.188;2023-09-30T09:21:08;16.15;;;9.57;;
32864;SDS011;19219;44.500;11.188;2023-09-30T09:23:38;12.52;;;9.50;;
32864;SDS011;19219;44.500;11.188;2023-09-30T09:26:09;13.02;;;10.00;;
32864;SDS011;19219;44.500;11.188;2023-09-30T09:28:47;15.43;;;10.45;;
32864;SDS011;19219;44.500;11.188;2023-09-30T09:33:51;14.95;;;10.60;;
32864;SDS011;19219;44.500;11.188;2023-09-30T09:36:17;19.70;;;11.23;;
32864;SDS011;19219;44.500;11.188;2023-09-30T09:38:48;17.95;;;11.02;;
32864;SDS011;19219;44.500;11.188;2023-09-30T09:41:18;15.52;;;11.18;;
32864;SDS011;19219;44.500;11.188;2023-09-30T09:43:44;14.75;;;11.05;;
32864;SDS011;19219;44.500;11.188;2023-09-30T09:46:13;20.20;;;13.30;;
32864;SDS011;19219;44.500;11.188;2023-09-30T09:48:39;21.63;;;12.57;;
32864;SDS011;19219;44.500;11.188;2023-09-30T09:51:05;18.35;;;12.43;;
32864;SDS011;19219;44.500;11.188;2023-09-30T09:53:34;16.50;;;10.82;;
32864;SDS011;19219;44.500;11.188;2023-09-30T09:56:01;15.90;;;11.80;;
32864;SDS011;19219;44.500;11.188;2023-09-30T09:58:28;17.60;;;12.00;;
32864;SDS011;19219;44.500;11.188;2023-09-30T10:00:59;14.85;;;11.77;;
32864;SDS011;19219;44.500;11.188;2023-09-30T10:03:26;13.70;;;11.98;;
32864;SDS011;19219;44.500;11.188;2023-09-30T10:05:52;23.17;;;11.65;;
32864;SDS011;19219;44.500;11.188;2023-09-30T10:08:19;18.42;;;11.48;;
32864;SDS011;19219;44.500;11.188;2023-09-30T10:10:52;18.38;;;10.95;;
32864;SDS011;19219;44.500;11.188;2023-09-30T10:21:38;15.32;;;10.18;;
32864;SDS011;19219;44.500;11.188;2023-09-30T10:29:54;27.80;;;16.13;;
32864;SDS011;19219;44.500;11.188;2023-09-30T10:40:50;16.17;;;9.23;;
32864;SDS011;19219;44.500;11.188;2023-09-30T10:43:49;13.00;;;9.13;;
32864;SDS011;19219;44.500;11.188;2023-09-30T10:48:52;15.00;;;9.32;;
32864;SDS011;19219;44.500;11.188;2023-09-30T10:51:18;17.02;;;9.13;;
32864;SDS011;19219;44.500;11.188;2023-09-30T10:53:49;15.75;;;8.48;;
32864;SDS011;19219;44.500;11.188;2023-09-30T10:56:22;16.48;;;8.20;;
32864;SDS011;19219;44.500;11.188;2023-09-30T10:58:52;16.40;;;8.80;;
32864;SDS011;19219;44.500;11.188;2023-09-30T11:01:19;11.57;;;8.07;;
32864;SDS011;19219;44.500;11.188;2023-09-30T11:03:49;15.80;;;8.38;;
32864;SDS011;19219;44.500;11.188;2023-09-30T11:06:20;13.45;;;8.98;;
32864;SDS011;19219;44.500;11.188;2023-09-30T11:08:56;37.70;;;26.13;;
32864;SDS011;19219;44.500;11.188;2023-09-30T11:11:44;14.27;;;9.10;;
32864;SDS011;19219;44.500;11.188;2023-09-30T11:14:30;11.30;;;7.85;;
32864;SDS011;19219;44.500;11.188;2023-09-30T11:17:00;11.27;;;7.97;;
32864;SDS011;19219;44.500;11.188;2023-09-30T11:19:49;9.65;;;6.70;;
32864;SDS011;19219;44.500;11.188;2023-09-30T11:22:15;10.57;;;7.07;;
32864;SDS011;19219;44.500;11.188;2023-09-30T11:24:40;17.67;;;6.95;;
32864;SDS011;19219;44.500;11.188;2023-09-30T11:27:06;11.75;;;9.68;;
32864;SDS011;19219;44.500;11.188;2023-09-30T11:29:32;20.33;;;13.02;;
32864;SDS011;19219;44.500;11.188;2023-09-30T11:31:58;10.98;;;7.15;;
32864;SDS011;19219;44.500;11.188;2023-09-30T11:34:33;10.90;;;6.80;;
32864;SDS011;19219;44.500;11.188;2023-09-30T11:37:01;17.17;;;6.57;;
32864;SDS011;19219;44.500;11.188;2023-09-30T11:39:27;9.05;;;7.05;;
32864;SDS011;19219;44.500;11.188;2023-09-30T11:41:54;14.00;;;6.82;;
32864;SDS011;19219;44.500;11.188;2023-09-30T11:44:22;10.50;;;7.13;;
32864;SDS011;19219;44.500;11.188;2023-09-30T11:47:01;9.45;;;6.40;;
32864;SDS011;19219;44.500;11.188;2023-09-30T11:49:31;12.68;;;6.30;;
32864;SDS011;19219;44.500;11.188;2023-09-30T11:52:01;11.63;;;5.85;;
32864;SDS011;19219;44.500;11.188;2023-09-30T11:54:35;9.35;;;5.97;;
32864;SDS011;19219;44.500;11.188;2023-09-30T11:59:35;9.68;;;6.05;;
32864;SDS011;19219;44.500;11.188;2023-09-30T12:02:01;11.15;;;7.15;;
32864;SDS011;19219;44.500;11.188;2023-09-30T12:04:28;9.50;;;5.65;;
32864;SDS011;19219;44.500;11.188;2023-09-30T12:06:54;7.35;;;5.78;;
32864;SDS011;19219;44.500;11.188;2023-09-30T12:09:20;7.40;;;5.32;;
32864;SDS011;19219;44.500;11.188;2023-09-30T12:11:52;8.52;;;5.35;;
32864;SDS011;19219;44.500;11.188;2023-09-30T12:14:18;6.75;;;4.80;;
32864;SDS011;19219;44.500;11.188;2023-09-30T12:16:45;9.43;;;6.07;;
32864;SDS011;19219;44.500;11.188;2023-09-30T12:19:12;8.50;;;5.10;;
32864;SDS011;19219;44.500;11.188;2023-09-30T12:21:40;8.35;;;6.03;;
32864;SDS011;19219;44.500;11.188;2023-09-30T12:24:06;14.10;;;6.45;;
32864;SDS011;19219;44.500;11.188;2023-09-30T12:26:34;9.98;;;6.60;;
32864;SDS011;19219;44.500;11.188;2023-09-30T12:29:01;7.90;;;6.07;;
32864;SDS011;19219;44.500;11.188;2023-09-30T12:31:26;9.95;;;6.05;;
32864;SDS011;19219;44.500;11.188;2023-09-30T12:33:52;8.00;;;6.18;;
32864;SDS011;19219;44.500;11.188;2023-09-30T12:36:20;9.88;;;6.20;;
32864;SDS011;19219;44.500;11.188;2023-09-30T12:38:49;15.43;;;9.88;;
32864;SDS011;19219;44.500;11.188;2023-09-30T12:41:15;9.00;;;6.10;;
32864;SDS011;19219;44.500;11.188;2023-09-30T12:43:40;6.63;;;5.93;;
32864;SDS011;19219;44.500;11.188;2023-09-30T12:46:08;7.63;;;6.05;;
32864;SDS011;19219;44.500;11.188;2023-09-30T12:48:34;12.35;;;7.40;;
32864;SDS011;19219;44.500;11.188;2023-09-30T12:51:00;12.25;;;5.75;;
32864;SDS011;19219;44.500;11.188;2023-09-30T12:53:29;8.38;;;4.72;;
32864;SDS011;19219;44.500;11.188;2023-09-30T12:55:55;8.05;;;5.55;;
32864;SDS011;19219;44.500;11.188;2023-09-30T12:58:21;12.60;;;9.05;;
32864;SDS011;19219;44.500;11.188;2023-09-30T13:00:47;12.35;;;7.03;;
32864;SDS011;19219;44.500;11.188;2023-09-30T13:03:13;8.40;;;6.43;;
32864;SDS011;19219;44.500;11.188;2023-09-30T13:05:40;9.15;;;5.60;;
32864;SDS011;19219;44.500;11.188;2023-09-30T13:08:06;16.95;;;6.13;;
32864;SDS011;19219;44.500;11.188;2023-09-30T13:10:32;11.15;;;5.90;;
32864;SDS011;19219;44.500;11.188;2023-09-30T13:12:57;10.57;;;5.50;;
32864;SDS011;19219;44.500;11.188;2023-09-30T13:15:23;9.10;;;6.05;;
32864;SDS011;19219;44.500;11.188;2023-09-30T13:17:51;8.30;;;5.68;;
32864;SDS011;19219;44.500;11.188;2023-09-30T13:20:16;7.43;;;6.38;;
32864;SDS011;19219;44.500;11.188;2023-09-30T13:22:42;8.10;;;5.03;;
32864;SDS011;19219;44.500;11.188;2023-09-30T13:25:08;8.65;;;5.72;;
32864;SDS011;19219;44.500;11.188;2023-09-30T13:27:35;8.25;;;6.05;;
32864;SDS011;19219;44.500;11.188;2023-09-30T13:30:01;7.25;;;5.53;;
32864;SDS011;19219;44.500;11.188;2023-09-30T13:32:27;7.10;;;6.15;;
32864;SDS011;19219;44.500;11.188;2023-09-30T13:34:53;8.38;;;5.53;;
32864;SDS011;19219;44.500;11.188;2023-09-30T13:37:19;6.32;;;5.63;;
32864;SDS011;19219;44.500;11.188;2023-09-30T13:39:45;7.75;;;6.38;;
32864;SDS011;19219;44.500;11.188;2023-09-30T13:42:11;10.63;;;6.10;;
32864;SDS011;19219;44.500;11.188;2023-09-30T13:44:37;10.32;;;6.43;;
32864;SDS011;19219;44.500;11.188;2023-09-30T13:47:02;9.48;;;6.78;;
32864;SDS011;19219;44.500;11.188;2023-09-30T13:49:28;9.35;;;6.53;;
32864;SDS011;19219;44.500;11.188;2023-09-30T13:51:55;8.57;;;5.47;;
32864;SDS011;19219;44.500;11.188;2023-09-30T13:54:21;9.68;;;6.00;;
32864;SDS011;19219;44.500;11.188;2023-09-30T13:56:47;8.48;;;6.22;;
32864;SDS011;19219;44.500;11.188;2023-09-30T13:59:13;11.88;;;6.10;;
32864;SDS011;19219;44.500;11.188;2023-09-30T14:01:38;6.90;;;5.22;;
32864;SDS011;19219;44.500;11.188;2023-09-30T14:04:06;7.60;;;5.90;;
32864;SDS011;19219;44.500;11.188;2023-09-30T14:06:33;11.70;;;7.38;;
32864;SDS011;19219;44.500;11.188;2023-09-30T14:08:59;10.95;;;7.70;;
32864;SDS011;19219;44.500;11.188;2023-09-30T14:11:25;11.60;;;6.35;;
32864;SDS011;19219;44.500;11.188;2023-09-30T14:13:51;9.80;;;5.80;;
32864;SDS011;19219;44.500;11.188;2023-09-30T14:16:17;8.90;;;6.05;;
32864;SDS011;19219;44.500;11.188;2023-09-30T14:18:43;11.27;;;6.18;;
32864;SDS011;19219;44.500;11.188;2023-09-30T14:21:10;9.25;;;5.70;;
32864;SDS011;19219;44.500;11.188;2023-09-30T14:23:35;13.98;;;5.63;;
32864;SDS011;19219;44.500;11.188;2023-09-30T14:26:01;7.30;;;5.40;;
32864;SDS011;19219;44.500;11.188;2023-09-30T14:28:35;8.75;;;5.68;;
32864;SDS011;19219;44.500;11.188;2023-09-30T14:31:03;7.07;;;5.72;;
32864;SDS011;19219;44.500;11.188;2023-09-30T14:33:29;8.98;;;5.40;;
32864;SDS011;19219;44.500;11.188;2023-09-30T14:35:55;10.23;;;5.50;;
32864;SDS011;19219;44.500;11.188;2023-09-30T14:38:21;11.27;;;5.90;;
32864;SDS011;19219;44.500;11.188;2023-09-30T14:40:48;8.65;;;5.60;;
32864;SDS011;19219;44.500;11.188;2023-09-30T14:43:15;16.45;;;7.10;;
32864;SDS011;19219;44.500;11.188;2023-09-30T14:45:41;9.27;;;5.47;;
32864;SDS011;19219;44.500;11.188;2023-09-30T14:48:07;7.95;;;6.00;;
32864;SDS011;19219;44.500;11.188;2023-09-30T14:50:33;10.52;;;6.18;;
32864;SDS011;19219;44.500;11.188;2023-09-30T14:52:59;9.95;;;5.57;;
32864;SDS011;19219;44.500;11.188;2023-09-30T14:55:24;11.65;;;6.53;;